Time;durP1;ratioP1;P1;durP2;ratioP2;P2;SDS_P1;SDS_P2;PMS_P1;PMS_P2;Temp;Humidity;BMP_temperature;BMP_pressure;BME280_temperature;BME280_humidity;BME280_pressure;Samples;Min_cycle;Max_cycle;Signal;HPM_P1;HPM_P2
2021/01/20 00:01:00;;;;;;;0.80;0.80;;;2.60;99.90;;;;;;5061219;28;20452;-74
2021/01/20 00:03:28;;;;;;;1.23;1.13;;;2.50;99.90;;;;;;5057096;28;20177;-75
2021/01/20 00:05:54;;;;;;;1.03;0.97;;;2.50;99.90;;;;;;5060474;28;20284;-74
2021/01/20 00:08:20;;;;;;;2.63;2.33;;;2.40;99.90;;;;;;5061576;28;20423;-75
2021/01/20 00:10:46;;;;;;;5.97;3.33;;;2.30;99.90;;;;;;5061603;28;20543;-75
2021/01/20 00:13:15;;;;;;;2.40;2.30;;;2.30;99.90;;;;;;5063749;28;20177;-75
2021/01/20 00:15:42;;;;;;;2.10;1.90;;;2.30;99.90;;;;;;5045779;28;20931;-75
2021/01/20 00:18:07;;;;;;;1.10;1.00;;;2.20;99.90;;;;;;5063051;28;20530;-74
2021/01/20 00:20:33;;;;;;;1.13;0.93;;;2.20;99.90;;;;;;5064370;28;20461;-75
2021/01/20 00:22:58;;;;;;;1.83;1.40;;;2.20;99.90;;;;;;5060471;28;20185;-75
2021/01/20 00:25:24;;;;;;;1.50;1.40;;;2.20;99.90;;;;;;5063529;28;20220;-74
2021/01/20 00:27:50;;;;;;;1.10;0.90;;;2.20;99.90;;;;;;5060432;28;20192;-74
2021/01/20 00:30:16;;;;;;;3.20;1.23;;;2.10;99.90;;;;;;5064150;28;20186;-75
2021/01/20 00:32:41;;;;;;;1.27;0.80;;;2.10;99.90;;;;;;5061515;28;20655;-74
2021/01/20 00:35:09;;;;;;;1.97;0.93;;;2.20;99.90;;;;;;5060844;28;20434;-74
2021/01/20 00:37:35;;;;;;;3.90;0.90;;;2.30;99.90;;;;;;5061912;28;20183;-74
2021/01/20 00:40:02;;;;;;;1.97;1.20;;;2.30;99.90;;;;;;5061243;28;20929;-75
2021/01/20 00:42:28;;;;;;;2.13;1.13;;;2.40;99.90;;;;;;5063621;28;20434;-75
2021/01/20 00:44:53;;;;;;;1.80;1.27;;;2.40;99.90;;;;;;5061055;28;20816;-74
2021/01/20 00:47:19;;;;;;;1.73;0.80;;;2.40;99.90;;;;;;5064424;28;20424;-75
2021/01/20 00:49:44;;;;;;;3.43;1.13;;;2.40;99.90;;;;;;5062343;28;20607;-74
2021/01/20 00:52:10;;;;;;;1.77;0.90;;;2.40;99.90;;;;;;5063129;28;20260;-74
2021/01/20 00:54:35;;;;;;;3.63;1.27;;;2.40;99.90;;;;;;5063275;28;20210;-75
2021/01/20 00:57:01;;;;;;;1.13;0.70;;;2.40;99.90;;;;;;5063784;28;20192;-74
2021/01/20 00:59:26;;;;;;;2.00;0.80;;;2.50;99.90;;;;;;5068069;28;20196;-75
2021/01/20 01:01:57;;;;;;;1.20;0.93;;;2.50;99.90;;;;;;5063113;28;20295;-75
2021/01/20 01:04:24;;;;;;;1.00;0.80;;;2.60;99.90;;;;;;5059994;28;20218;-75
2021/01/20 01:06:50;;;;;;;1.83;0.77;;;2.60;99.90;;;;;;5063570;28;20423;-75
2021/01/20 01:09:15;;;;;;;1.20;1.10;;;2.70;99.90;;;;;;5061784;28;20847;-75
2021/01/20 01:11:41;;;;;;;3.57;1.07;;;2.60;99.90;;;;;;5061800;28;20184;-75
2021/01/20 01:14:06;;;;;;;1.17;1.00;;;2.60;99.90;;;;;;5061434;28;20718;-74
2021/01/20 01:16:32;;;;;;;2.37;1.20;;;2.60;99.90;;;;;;5061777;28;20212;-75
2021/01/20 01:18:57;;;;;;;1.77;0.90;;;2.70;99.90;;;;;;5063906;28;20191;-75
2021/01/20 01:21:23;;;;;;;1.43;1.00;;;2.80;99.90;;;;;;5059456;28;20678;-75
2021/01/20 01:23:49;;;;;;;1.83;1.13;;;2.90;99.90;;;;;;5063541;28;20179;-74
2021/01/20 01:26:14;;;;;;;1.17;1.17;;;2.90;99.90;;;;;;5061479;28;20251;-75
2021/01/20 01:28:40;;;;;;;2.50;0.93;;;2.90;99.90;;;;;;5062581;28;20182;-75
2021/01/20 01:31:05;;;;;;;1.20;1.10;;;2.90;99.90;;;;;;5062755;28;20222;-74
2021/01/20 01:33:31;;;;;;;2.40;2.00;;;3.00;99.90;;;;;;5060964;28;20183;-75
2021/01/20 01:35:58;;;;;;;2.20;1.50;;;3.00;99.90;;;;;;5063683;28;20207;-75
2021/01/20 01:38:24;;;;;;;1.93;1.43;;;2.90;99.90;;;;;;5060548;28;20426;-75
2021/01/20 01:40:49;;;;;;;3.80;1.83;;;3.00;99.90;;;;;;5063259;28;20440;-74
2021/01/20 01:43:15;;;;;;;1.87;1.17;;;3.10;99.90;;;;;;5061153;28;20642;-75
2021/01/20 01:45:41;;;;;;;1.03;1.03;;;3.10;99.90;;;;;;5062147;28;20205;-75
2021/01/20 01:48:06;;;;;;;1.67;1.57;;;3.10;99.90;;;;;;5062200;28;20653;-74
2021/01/20 01:50:32;;;;;;;1.00;0.90;;;3.20;99.90;;;;;;5060903;28;20201;-75
2021/01/20 01:52:58;;;;;;;1.57;1.00;;;3.10;99.90;;;;;;5063624;28;20192;-75
2021/01/20 01:55:23;;;;;;;1.10;1.10;;;3.10;99.90;;;;;;5059925;28;20205;-75
2021/01/20 01:57:49;;;;;;;1.33;1.23;;;3.00;99.90;;;;;;5060107;28;20459;-75
2021/01/20 02:00:15;;;;;;;2.17;1.63;;;2.90;99.90;;;;;;5061017;28;20697;-75
2021/01/20 02:02:41;;;;;;;1.80;1.70;;;2.90;99.90;;;;;;5061846;28;20187;-75
2021/01/20 02:05:07;;;;;;;2.00;1.40;;;2.90;99.90;;;;;;5060769;28;20438;-75
2021/01/20 02:07:34;;;;;;;3.73;1.10;;;2.80;99.90;;;;;;5062638;28;20271;-75
2021/01/20 02:10:04;;;;;;;1.10;0.83;;;2.80;99.90;;;;;;5060006;28;20265;-74
2021/01/20 02:12:48;;;;;;;0.90;0.90;;;2.70;99.90;;;;;;5063029;28;20398;-74
2021/01/20 02:15:43;;;;;;;1.10;1.10;;;2.70;99.90;;;;;;5061859;28;20419;-75
2021/01/20 02:18:22;;;;;;;1.30;1.20;;;2.80;99.90;;;;;;5040545;28;20431;-75
2021/01/20 02:21:16;;;;;;;1.80;1.20;;;2.70;99.90;;;;;;5062600;28;20437;-75
2021/01/20 02:23:43;;;;;;;1.67;0.90;;;2.70;99.90;;;;;;5061652;28;20427;-75
2021/01/20 02:26:38;;;;;;;1.00;1.00;;;2.60;99.90;;;;;;5061151;28;20523;-75
2021/01/20 02:29:21;;;;;;;2.30;0.90;;;2.60;99.90;;;;;;5060271;28;20474;-75
2021/01/20 02:31:48;;;;;;;2.20;1.53;;;2.60;99.90;;;;;;5059993;28;20541;-75
2021/01/20 02:34:17;;;;;;;1.70;1.60;;;2.50;99.90;;;;;;5061012;28;20460;-74
2021/01/20 02:36:45;;;;;;;1.07;0.93;;;2.40;99.90;;;;;;5060853;28;20929;-75
2021/01/20 02:39:11;;;;;;;2.57;1.40;;;2.40;99.90;;;;;;5061114;28;20833;-75
2021/01/20 02:41:36;;;;;;;1.30;1.20;;;2.40;99.90;;;;;;5060390;28;20984;-75
2021/01/20 02:44:04;;;;;;;1.37;1.00;;;2.50;99.90;;;;;;5059607;28;20399;-75
2021/01/20 02:46:34;;;;;;;0.80;0.80;;;2.60;99.90;;;;;;5062462;28;20670;-75
2021/01/20 02:49:00;;;;;;;0.60;0.60;;;2.60;99.90;;;;;;5059254;28;20416;-75
2021/01/20 02:51:48;;;;;;;1.13;0.87;;;2.70;99.90;;;;;;5063053;28;20419;-75
2021/01/20 02:54:16;;;;;;;0.70;0.70;;;3.10;99.90;;;;;;5061251;28;20485;-75
2021/01/20 02:56:47;;;;;;;0.70;0.70;;;3.30;99.90;;;;;;5059770;28;20453;-75
2021/01/20 02:59:14;;;;;;;0.60;0.60;;;3.40;99.90;;;;;;5059854;28;20515;-75
2021/01/20 03:02:01;;;;;;;1.00;0.77;;;3.50;99.90;;;;;;5061053;28;20505;-75
2021/01/20 03:04:28;;;;;;;1.20;0.77;;;3.60;99.90;;;;;;5057521;28;20424;-75
2021/01/20 03:06:57;;;;;;;0.80;0.80;;;3.60;99.90;;;;;;5059205;28;20424;-75
2021/01/20 03:09:22;;;;;;;1.77;1.27;;;3.60;99.90;;;;;;5062242;28;20415;-75
2021/01/20 03:11:49;;;;;;;1.00;0.90;;;3.50;99.90;;;;;;5059752;28;20442;-75
2021/01/20 03:14:18;;;;;;;1.63;1.03;;;3.50;99.90;;;;;;5060909;28;20201;-74
2021/01/20 03:16:43;;;;;;;1.53;0.90;;;3.50;99.90;;;;;;5060421;28;20434;-75
2021/01/20 03:19:09;;;;;;;0.97;0.80;;;3.50;99.90;;;;;;5060183;28;20420;-75
2021/01/20 03:21:35;;;;;;;1.50;1.00;;;3.50;99.90;;;;;;5061509;28;20212;-75
2021/01/20 03:24:00;;;;;;;2.30;0.80;;;3.40;99.90;;;;;;5058922;28;20712;-75
2021/01/20 03:26:26;;;;;;;1.00;0.80;;;3.30;99.90;;;;;;5062374;28;20239;-75
2021/01/20 03:28:51;;;;;;;1.33;1.20;;;3.30;99.90;;;;;;5058947;28;20190;-75
2021/01/20 03:31:17;;;;;;;0.73;0.73;;;3.20;99.90;;;;;;5060217;28;20182;-75
2021/01/20 03:33:42;;;;;;;1.20;1.10;;;3.20;99.90;;;;;;5060158;28;20193;-75
2021/01/20 03:36:08;;;;;;;1.30;0.70;;;3.20;99.90;;;;;;5058623;28;20206;-75
2021/01/20 03:38:33;;;;;;;0.90;0.70;;;3.10;99.90;;;;;;5060241;28;20197;-74
2021/01/20 03:40:59;;;;;;;1.23;1.13;;;3.00;99.90;;;;;;5058716;28;20296;-74
2021/01/20 03:43:24;;;;;;;1.03;1.00;;;3.00;99.90;;;;;;5062135;28;20189;-75
2021/01/20 03:45:50;;;;;;;1.93;0.80;;;2.80;99.90;;;;;;5060478;28;20625;-75
2021/01/20 03:48:15;;;;;;;1.10;1.10;;;2.70;99.90;;;;;;5064974;28;20189;-75
2021/01/20 03:50:41;;;;;;;1.40;1.30;;;2.70;99.90;;;;;;5064057;28;20193;-75
2021/01/20 03:53:06;;;;;;;1.40;1.23;;;2.70;99.90;;;;;;5063855;28;20189;-74
2021/01/20 03:55:32;;;;;;;1.60;0.93;;;2.70;99.90;;;;;;5065012;28;20222;-75
2021/01/20 03:57:57;;;;;;;0.77;0.70;;;2.60;99.90;;;;;;5062393;28;20202;-75
2021/01/20 04:00:23;;;;;;;1.73;1.00;;;2.60;99.90;;;;;;5065554;28;20231;-75
2021/01/20 04:02:48;;;;;;;1.00;0.90;;;2.70;99.90;;;;;;5065939;28;20274;-74
2021/01/20 04:05:14;;;;;;;1.40;1.03;;;2.60;99.90;;;;;;5062244;28;20210;-75
2021/01/20 04:07:39;;;;;;;1.67;1.10;;;2.60;99.90;;;;;;5063947;28;20189;-75
2021/01/20 04:10:09;;;;;;;1.60;0.87;;;2.70;99.90;;;;;;5064466;28;20185;-75
2021/01/20 04:12:36;;;;;;;1.57;1.23;;;2.80;99.90;;;;;;5064762;28;20682;-75
2021/01/20 04:15:07;;;;;;;0.90;0.90;;;2.90;99.90;;;;;;5060059;28;20556;-75
2021/01/20 04:17:33;;;;;;;1.10;1.00;;;2.90;99.90;;;;;;5065572;28;20415;-75
2021/01/20 04:19:59;;;;;;;0.90;0.80;;;2.80;99.90;;;;;;5065810;28;20434;-74
2021/01/20 04:22:25;;;;;;;1.10;1.00;;;2.80;99.90;;;;;;5061953;28;20896;-74
2021/01/20 04:24:51;;;;;;;2.40;1.00;;;2.70;99.90;;;;;;5064547;28;20239;-74
2021/01/20 04:27:17;;;;;;;0.97;0.87;;;2.80;99.90;;;;;;5060643;28;20473;-74
2021/01/20 04:29:42;;;;;;;1.80;0.97;;;2.80;99.90;;;;;;5067752;28;20194;-73
2021/01/20 04:32:08;;;;;;;1.10;1.10;;;2.90;99.90;;;;;;5061979;28;20180;-74
2021/01/20 04:34:33;;;;;;;0.97;0.87;;;2.90;99.90;;;;;;5064207;28;20203;-74
2021/01/20 04:36:59;;;;;;;1.20;1.10;;;2.90;99.90;;;;;;5061443;28;20174;-73
2021/01/20 04:39:24;;;;;;;1.10;0.90;;;2.90;99.90;;;;;;5062739;28;20655;-74
2021/01/20 04:41:51;;;;;;;2.07;1.40;;;3.00;99.90;;;;;;5062018;28;20288;-73
2021/01/20 04:44:17;;;;;;;1.53;1.10;;;3.00;99.90;;;;;;5061413;28;20182;-73
2021/01/20 04:46:44;;;;;;;1.43;1.13;;;3.00;99.90;;;;;;5063113;28;20506;-74
2021/01/20 04:49:14;;;;;;;1.73;1.20;;;2.90;99.90;;;;;;5061772;28;20895;-74
2021/01/20 04:51:41;;;;;;;1.83;1.10;;;2.90;99.90;;;;;;5063170;28;20423;-74
2021/01/20 04:54:12;;;;;;;1.47;1.17;;;2.80;99.90;;;;;;5063035;28;20500;-74
2021/01/20 04:56:38;;;;;;;1.07;0.90;;;2.80;99.90;;;;;;5062155;28;20447;-74
2021/01/20 04:59:05;;;;;;;0.80;0.80;;;2.70;99.90;;;;;;5065013;28;20439;-74
2021/01/20 05:01:31;;;;;;;1.57;1.03;;;2.60;99.90;;;;;;5060472;28;20466;-74
2021/01/20 05:04:01;;;;;;;1.07;1.07;;;2.60;99.90;;;;;;5063002;28;20406;-74
2021/01/20 05:06:28;;;;;;;0.83;0.80;;;2.60;99.90;;;;;;5061268;28;20398;-74
2021/01/20 05:08:54;;;;;;;2.13;0.90;;;2.60;99.90;;;;;;5063621;28;20413;-74
2021/01/20 05:11:20;;;;;;;0.90;0.80;;;2.70;99.90;;;;;;5059559;28;20948;-74
2021/01/20 05:13:45;;;;;;;1.37;0.97;;;2.80;99.90;;;;;;5062184;28;20397;-74
2021/01/20 05:16:25;;;;;;;1.20;0.80;;;2.80;99.90;;;;;;5063117;28;20206;-73
2021/01/20 05:18:50;;;;;;;0.80;0.80;;;3.10;99.90;;;;;;5059853;28;20182;-74
2021/01/20 05:21:19;;;;;;;1.10;0.90;;;3.50;99.90;;;;;;5061387;28;20604;-74
2021/01/20 05:23:45;;;;;;;0.80;0.80;;;3.80;99.90;;;;;;5061825;28;20302;-74
2021/01/20 05:26:10;;;;;;;1.63;1.00;;;4.10;99.90;;;;;;5060885;28;20888;-73
2021/01/20 05:28:36;;;;;;;0.70;0.70;;;4.40;99.90;;;;;;5063108;28;20311;-74
2021/01/20 05:31:03;;;;;;;1.20;0.60;;;4.60;99.90;;;;;;5058280;28;20539;-74
2021/01/20 05:33:36;;;;;;;0.80;0.80;;;4.70;99.90;;;;;;5063932;28;20941;-72
2021/01/20 05:36:10;;;;;;;0.80;0.80;;;4.80;99.90;;;;;;5061738;28;20560;-74
2021/01/20 05:38:42;;;;;;;1.10;0.90;;;5.00;99.90;;;;;;5060310;28;20420;-74
2021/01/20 05:41:21;;;;;;;2.70;1.00;;;5.00;99.90;;;;;;5061792;28;20963;-73
2021/01/20 05:43:49;;;;;;;1.00;0.90;;;5.10;99.90;;;;;;5060858;28;20431;-73
2021/01/20 05:46:32;;;;;;;1.27;0.80;;;5.10;99.90;;;;;;5058631;28;20462;-74
2021/01/20 05:48:58;;;;;;;1.50;0.70;;;5.20;99.90;;;;;;5060321;28;20406;-74
2021/01/20 05:51:24;;;;;;;1.20;1.10;;;5.20;99.90;;;;;;5059499;28;20493;-73
2021/01/20 05:53:57;;;;;;;0.90;0.90;;;5.20;99.90;;;;;;5060833;28;20520;-74
2021/01/20 05:56:29;;;;;;;1.87;0.70;;;5.30;99.90;;;;;;5064105;28;20212;-74
2021/01/20 05:58:55;;;;;;;1.17;0.80;;;5.30;99.90;;;;;;5066941;28;20454;-74
2021/01/20 06:01:22;;;;;;;1.70;1.47;;;5.30;99.90;;;;;;5065580;28;20771;-74
2021/01/20 06:03:48;;;;;;;1.93;0.87;;;5.30;99.90;;;;;;5062598;28;20436;-74
2021/01/20 06:06:16;;;;;;;1.03;0.97;;;5.30;99.90;;;;;;5061008;28;20791;-74
2021/01/20 06:08:41;;;;;;;2.30;1.17;;;5.30;99.90;;;;;;5060791;28;20218;-74
2021/01/20 06:11:07;;;;;;;0.90;0.90;;;5.20;99.90;;;;;;5060893;28;20451;-74
2021/01/20 06:13:34;;;;;;;2.80;1.30;;;5.20;99.90;;;;;;5061775;28;20241;-72
2021/01/20 06:16:24;;;;;;;1.10;0.97;;;5.20;99.90;;;;;;5057989;28;20555;-74
2021/01/20 06:18:54;;;;;;;1.23;1.13;;;5.30;99.90;;;;;;5059967;28;20407;-75
2021/01/20 06:21:20;;;;;;;3.37;1.53;;;5.30;99.90;;;;;;5065191;28;20523;-75
2021/01/20 06:24:00;;;;;;;4.83;1.70;;;5.30;99.90;;;;;;5060522;28;20447;-75
2021/01/20 06:26:26;;;;;;;1.40;1.30;;;5.20;99.90;;;;;;5059740;28;20293;-74
2021/01/20 06:28:57;;;;;;;1.80;1.37;;;5.10;99.90;;;;;;5062291;28;20440;-74
2021/01/20 06:31:23;;;;;;;1.03;0.90;;;5.10;99.90;;;;;;5061493;28;20455;-75
2021/01/20 06:33:49;;;;;;;2.80;1.50;;;5.00;99.90;;;;;;5058770;28;20452;-75
2021/01/20 06:36:31;;;;;;;2.40;1.20;;;4.90;99.90;;;;;;5067226;28;20450;-75
2021/01/20 06:38:57;;;;;;;1.27;1.13;;;5.00;99.90;;;;;;5061263;28;20216;-75
2021/01/20 06:41:40;;;;;;;1.27;1.17;;;5.00;99.90;;;;;;5062806;28;21003;-74
2021/01/20 06:44:10;;;;;;;2.10;1.80;;;5.10;99.90;;;;;;5059704;28;20254;-75
2021/01/20 06:46:37;;;;;;;1.87;1.43;;;5.20;99.90;;;;;;5065810;28;20452;-75
2021/01/20 06:49:04;;;;;;;1.67;1.50;;;5.20;99.90;;;;;;5060629;28;20533;-75
2021/01/20 06:51:32;;;;;;;2.30;1.43;;;5.20;99.90;;;;;;5059559;28;20920;-74
2021/01/20 06:54:05;;;;;;;1.53;1.10;;;5.20;99.90;;;;;;5059756;28;20975;-74
2021/01/20 06:56:31;;;;;;;4.63;1.40;;;5.30;99.90;;;;;;5058731;28;20804;-74
2021/01/20 06:59:14;;;;;;;1.30;1.00;;;5.30;99.90;;;;;;5058247;28;20813;-75
2021/01/20 07:01:39;;;;;;;1.80;1.40;;;5.30;99.90;;;;;;5060983;28;20481;-75
2021/01/20 07:04:05;;;;;;;1.20;1.10;;;5.30;99.90;;;;;;5059443;28;20425;-75
2021/01/20 07:06:37;;;;;;;2.60;0.97;;;5.30;99.90;;;;;;5061323;28;20215;-75
2021/01/20 07:09:14;;;;;;;1.53;1.20;;;5.30;99.90;;;;;;5059619;28;20175;-72
2021/01/20 07:11:59;;;;;;;1.10;1.00;;;5.40;99.90;;;;;;5060004;28;20429;-73
2021/01/20 07:14:29;;;;;;;12.17;1.20;;;5.40;99.90;;;;;;5058943;28;20414;-73
2021/01/20 07:16:59;;;;;;;1.30;1.20;;;5.50;99.90;;;;;;5061402;28;20438;-73
2021/01/20 07:19:28;;;;;;;10.23;1.37;;;5.60;99.90;;;;;;5061244;28;20467;-74
2021/01/20 07:21:54;;;;;;;2.43;1.30;;;5.50;99.90;;;;;;5064928;28;20477;-73
2021/01/20 07:24:20;;;;;;;1.20;1.07;;;5.50;99.90;;;;;;5065686;28;20419;-74
2021/01/20 07:26:47;;;;;;;1.07;0.97;;;5.50;99.90;;;;;;5062842;28;20614;-72
2021/01/20 07:29:16;;;;;;;1.00;1.00;;;5.50;99.90;;;;;;5062907;28;20404;-75
2021/01/20 07:31:50;;;;;;;0.93;0.93;;;5.60;99.90;;;;;;5064731;28;20451;-72
2021/01/20 07:34:16;;;;;;;1.70;1.07;;;5.60;99.90;;;;;;5064575;28;20485;-73
2021/01/20 07:36:42;;;;;;;1.40;1.30;;;5.50;99.90;;;;;;5063484;28;20421;-73
2021/01/20 07:39:24;;;;;;;0.87;0.87;;;5.50;99.90;;;;;;5065372;28;20420;-73
2021/01/20 07:41:57;;;;;;;1.23;0.80;;;5.50;99.90;;;;;;5063347;28;20246;-74
2021/01/20 07:44:26;;;;;;;2.83;0.93;;;5.60;99.90;;;;;;5095526;28;20429;-74
2021/01/20 07:47:06;;;;;;;1.83;0.80;;;5.60;99.90;;;;;;5065503;28;20928;-73
2021/01/20 07:49:32;;;;;;;2.20;1.37;;;5.60;99.90;;;;;;5062519;28;20513;-73
2021/01/20 07:52:01;;;;;;;1.20;1.10;;;5.50;99.90;;;;;;5062752;28;20412;-73
2021/01/20 07:54:38;;;;;;;2.27;1.23;;;5.50;99.90;;;;;;5064676;28;20435;-73
2021/01/20 07:57:08;;;;;;;1.10;0.87;;;5.50;99.90;;;;;;5066656;28;20502;-74
2021/01/20 07:59:34;;;;;;;5.73;1.57;;;5.50;99.90;;;;;;5065199;28;20464;-72
2021/01/20 08:02:14;;;;;;;1.47;1.13;;;5.60;99.90;;;;;;5062825;28;20519;-73
2021/01/20 08:04:40;;;;;;;3.47;1.20;;;5.60;99.90;;;;;;5062501;28;20558;-73
2021/01/20 08:07:09;;;;;;;1.10;1.10;;;5.60;99.90;;;;;;5064662;28;20497;-73
2021/01/20 08:09:38;;;;;;;4.70;1.00;;;5.70;99.90;;;;;;5060537;28;20186;-73
2021/01/20 08:12:07;;;;;;;4.50;2.33;;;5.70;99.90;;;;;;5064183;28;20621;-73
2021/01/20 08:14:34;;;;;;;4.00;1.90;;;5.70;99.90;;;;;;5063248;28;20511;-73
2021/01/20 08:17:01;;;;;;;1.70;1.10;;;5.70;99.90;;;;;;5063267;28;20429;-73
2021/01/20 08:19:27;;;;;;;1.40;1.10;;;5.80;99.90;;;;;;5064528;28;20437;-73
2021/01/20 08:21:53;;;;;;;2.60;1.53;;;5.80;99.90;;;;;;5060698;28;20461;-74
2021/01/20 08:24:22;;;;;;;1.33;1.10;;;5.90;99.90;;;;;;5062280;28;20546;-74
2021/01/20 08:26:55;;;;;;;1.83;1.37;;;5.90;99.90;;;;;;5063712;28;20453;-73
2021/01/20 08:29:21;;;;;;;1.53;1.23;;;5.90;99.90;;;;;;5064193;28;20496;-74
2021/01/20 08:32:11;;;;;;;14.70;7.20;;;5.90;99.90;;;;;;5061152;28;20558;-73
2021/01/20 08:34:38;;;;;;;1.77;1.43;;;6.00;99.90;;;;;;5062209;28;20451;-74
2021/01/20 08:37:07;;;;;;;1.67;1.30;;;6.00;99.90;;;;;;5062636;28;20440;-73
2021/01/20 08:39:35;;;;;;;2.10;1.17;;;6.10;99.90;;;;;;5061703;28;20839;-73
2021/01/20 08:42:36;;;;;;;3.30;1.80;;;6.10;99.90;;;;;;5063378;28;20474;-74
2021/01/20 08:45:11;;;;;;;1.10;1.03;;;6.10;99.90;;;;;;5001178;28;20467;-74
2021/01/20 08:47:46;;;;;;;1.53;1.30;;;6.10;99.90;;;;;;5053205;28;20441;-73
2021/01/20 08:50:30;;;;;;;2.67;1.47;;;6.10;99.90;;;;;;5063244;28;20437;-73
2021/01/20 08:53:07;;;;;;;1.83;1.17;;;6.10;99.90;;;;;;5060268;28;20921;-73
2021/01/20 08:55:49;;;;;;;2.10;1.90;;;6.20;99.90;;;;;;5062154;28;20533;-73
2021/01/20 08:58:22;;;;;;;2.00;1.50;;;6.20;99.90;;;;;;5061279;28;20504;-73
2021/01/20 09:00:50;;;;;;;2.23;1.53;;;6.10;99.90;;;;;;5065682;28;20469;-72
2021/01/20 09:03:18;;;;;;;2.37;1.60;;;6.10;99.90;;;;;;5060398;28;20434;-72
2021/01/20 09:05:45;;;;;;;2.73;1.33;;;6.10;99.90;;;;;;5061404;28;20458;-73
2021/01/20 09:08:11;;;;;;;4.23;1.93;;;6.10;99.90;;;;;;5062711;28;20469;-74
2021/01/20 09:10:37;;;;;;;1.63;1.43;;;6.10;99.90;;;;;;5061656;28;20498;-72
2021/01/20 09:13:03;;;;;;;2.80;1.63;;;6.10;99.90;;;;;;5063809;28;20210;-72
2021/01/20 09:15:29;;;;;;;2.10;1.57;;;6.20;99.90;;;;;;5065422;28;21090;-72
2021/01/20 09:17:54;;;;;;;1.60;1.50;;;6.10;99.90;;;;;;5063958;28;20191;-73
2021/01/20 09:20:20;;;;;;;2.07;1.40;;;6.10;99.90;;;;;;5063428;28;20206;-74
2021/01/20 09:22:47;;;;;;;2.90;1.80;;;6.10;99.90;;;;;;5060964;28;20181;-72
2021/01/20 09:25:13;;;;;;;8.77;2.40;;;6.10;99.90;;;;;;5059901;28;20568;-72
2021/01/20 09:27:38;;;;;;;4.07;2.40;;;6.10;99.90;;;;;;5062398;28;20442;-73
2021/01/20 09:30:05;;;;;;;6.20;2.50;;;6.20;99.90;;;;;;5061951;28;20212;-73
2021/01/20 09:32:38;;;;;;;4.67;2.10;;;6.20;99.90;;;;;;5060170;28;20176;-72
2021/01/20 09:35:08;;;;;;;2.40;2.20;;;6.20;99.90;;;;;;5063178;28;20524;-73
2021/01/20 09:37:34;;;;;;;3.60;1.67;;;6.20;99.90;;;;;;5061299;28;20446;-72
2021/01/20 09:40:00;;;;;;;4.00;3.33;;;6.20;99.90;;;;;;5060301;28;20414;-72
2021/01/20 09:42:26;;;;;;;6.27;1.93;;;6.30;99.90;;;;;;5061886;28;20193;-72
2021/01/20 09:44:51;;;;;;;3.50;2.57;;;6.30;99.90;;;;;;5061630;28;20468;-73
2021/01/20 09:47:17;;;;;;;5.60;2.37;;;6.30;99.90;;;;;;5058246;28;20210;-73
2021/01/20 09:49:43;;;;;;;5.17;2.60;;;6.40;99.90;;;;;;5061773;28;20251;-72
2021/01/20 09:52:10;;;;;;;3.27;2.13;;;6.40;99.90;;;;;;5060322;28;20659;-72
2021/01/20 09:54:36;;;;;;;3.80;2.00;;;6.50;99.90;;;;;;5060538;28;20695;-72
2021/01/20 09:57:02;;;;;;;7.83;2.70;;;6.50;99.90;;;;;;5063237;28;20432;-73
2021/01/20 09:59:27;;;;;;;2.27;1.97;;;6.50;99.90;;;;;;5061124;28;20625;-74
2021/01/20 10:01:53;;;;;;;6.30;1.90;;;6.50;99.90;;;;;;5065584;28;20494;-73
2021/01/20 10:04:18;;;;;;;5.53;2.10;;;6.60;99.90;;;;;;5060373;28;20188;-74
2021/01/20 10:06:44;;;;;;;2.90;2.70;;;6.60;99.90;;;;;;5060492;28;20272;-73
2021/01/20 10:09:09;;;;;;;5.43;1.87;;;6.70;99.90;;;;;;5059487;28;20184;-73
2021/01/20 10:11:35;;;;;;;4.83;2.13;;;6.70;99.90;;;;;;5060818;28;20192;-74
2021/01/20 10:14:00;;;;;;;5.40;2.20;;;6.70;99.90;;;;;;5062295;28;20187;-74
2021/01/20 10:16:26;;;;;;;2.37;2.17;;;6.70;99.90;;;;;;5067003;28;20218;-72
2021/01/20 10:18:51;;;;;;;4.33;3.10;;;6.70;99.90;;;;;;5059633;28;20679;-73
2021/01/20 10:21:17;;;;;;;2.53;2.20;;;6.70;99.90;;;;;;5062000;28;20215;-73
2021/01/20 10:23:42;;;;;;;3.93;2.60;;;6.80;99.90;;;;;;5061355;28;20188;-73
2021/01/20 10:26:08;;;;;;;5.40;2.70;;;6.80;99.90;;;;;;5061322;28;20729;-73
2021/01/20 10:28:33;;;;;;;4.43;3.47;;;6.90;99.90;;;;;;5059981;28;20683;-73
2021/01/20 10:30:59;;;;;;;5.70;2.97;;;6.90;99.90;;;;;;5063439;28;20184;-73
2021/01/20 10:33:24;;;;;;;4.50;2.70;;;7.00;99.90;;;;;;5059575;28;20185;-73
2021/01/20 10:35:50;;;;;;;2.70;2.47;;;7.00;99.90;;;;;;5059853;28;20208;-73
2021/01/20 10:38:15;;;;;;;5.67;2.30;;;7.00;99.90;;;;;;5061647;28;20184;-73
2021/01/20 10:40:41;;;;;;;4.17;2.10;;;7.00;99.90;;;;;;5058786;28;20217;-73
2021/01/20 10:43:06;;;;;;;6.67;2.33;;;7.10;99.90;;;;;;5061939;28;20271;-73
2021/01/20 10:45:32;;;;;;;2.30;2.10;;;7.10;99.90;;;;;;5056936;28;20257;-73
2021/01/20 10:47:57;;;;;;;3.57;2.67;;;7.10;99.90;;;;;;5060857;28;20582;-73
2021/01/20 10:50:23;;;;;;;3.00;1.80;;;7.10;99.90;;;;;;5057910;28;20223;-73
2021/01/20 10:52:48;;;;;;;3.33;2.37;;;7.10;99.90;;;;;;5058495;28;20182;-73
2021/01/20 10:55:14;;;;;;;2.90;2.23;;;7.10;99.90;;;;;;5059627;28;20193;-72
2021/01/20 10:57:39;;;;;;;4.70;1.90;;;7.10;99.90;;;;;;5064246;28;20191;-73
2021/01/20 11:00:05;;;;;;;4.43;2.43;;;7.10;99.90;;;;;;5065094;28;20185;-73
2021/01/20 11:02:31;;;;;;;2.50;2.00;;;7.20;99.90;;;;;;5062483;28;20244;-73
2021/01/20 11:04:56;;;;;;;4.90;2.33;;;7.20;99.90;;;;;;5058751;28;20443;-73
2021/01/20 11:07:22;;;;;;;2.33;2.23;;;7.20;99.90;;;;;;5060340;28;20205;-73
2021/01/20 11:09:48;;;;;;;5.80;2.47;;;7.20;99.90;;;;;;5059546;28;20258;-72
2021/01/20 11:12:13;;;;;;;12.77;2.57;;;7.30;99.90;;;;;;5060262;28;20180;-73
2021/01/20 11:14:40;;;;;;;5.47;2.73;;;7.30;99.90;;;;;;5061470;28;20209;-73
2021/01/20 11:17:06;;;;;;;5.80;2.60;;;7.30;99.90;;;;;;5061737;28;20541;-73
2021/01/20 11:19:32;;;;;;;2.93;2.67;;;7.30;99.90;;;;;;5058524;28;20451;-72
2021/01/20 11:21:58;;;;;;;4.07;2.80;;;7.30;99.90;;;;;;5062280;28;20470;-73
2021/01/20 11:24:23;;;;;;;4.47;2.50;;;7.40;99.90;;;;;;5057837;28;20696;-74
2021/01/20 11:26:50;;;;;;;6.13;2.50;;;7.40;99.90;;;;;;5060667;28;20224;-73
2021/01/20 11:29:15;;;;;;;3.30;2.20;;;7.50;99.90;;;;;;5062847;28;20180;-72
2021/01/20 11:31:41;;;;;;;4.30;2.57;;;7.50;99.90;;;;;;5062420;28;20767;-73
2021/01/20 11:34:06;;;;;;;3.90;2.47;;;7.50;99.90;;;;;;5062663;28;20173;-71
2021/01/20 11:36:32;;;;;;;2.80;2.20;;;7.40;99.90;;;;;;5059678;28;20306;-72
2021/01/20 11:38:58;;;;;;;2.93;2.00;;;7.40;99.90;;;;;;5058893;28;20205;-73
2021/01/20 11:41:24;;;;;;;2.33;2.00;;;7.40;99.90;;;;;;5060472;28;20245;-73
2021/01/20 11:43:51;;;;;;;5.63;2.50;;;7.50;99.90;;;;;;5061464;28;20878;-73
2021/01/20 11:46:17;;;;;;;3.43;2.20;;;7.50;99.90;;;;;;5057257;28;20705;-73
2021/01/20 11:48:43;;;;;;;5.57;2.40;;;7.50;99.90;;;;;;5060207;28;20805;-74
2021/01/20 11:51:08;;;;;;;8.43;3.00;;;7.50;99.90;;;;;;5060467;28;20533;-72
2021/01/20 11:53:34;;;;;;;6.87;2.93;;;7.50;99.90;;;;;;5058010;28;20232;-74
2021/01/20 11:55:59;;;;;;;11.70;2.50;;;7.50;99.90;;;;;;5059713;28;20664;-75
2021/01/20 11:58:25;;;;;;;2.93;2.67;;;7.50;99.90;;;;;;5062706;28;20191;-73
2021/01/20 12:00:50;;;;;;;5.50;2.50;;;7.40;99.90;;;;;;5061071;28;20210;-73
2021/01/20 12:03:16;;;;;;;4.23;2.40;;;7.40;99.90;;;;;;5059677;28;20670;-75
2021/01/20 12:05:42;;;;;;;5.57;2.30;;;7.30;99.90;;;;;;5060562;28;20207;-73
2021/01/20 12:08:07;;;;;;;2.47;2.27;;;7.30;99.90;;;;;;5065211;28;20174;-72
2021/01/20 12:10:33;;;;;;;3.20;2.30;;;7.30;99.90;;;;;;5062595;28;20441;-74
2021/01/20 12:12:58;;;;;;;6.63;2.37;;;7.30;99.90;;;;;;5063156;28;20650;-73
2021/01/20 12:15:24;;;;;;;4.60;2.30;;;7.40;99.90;;;;;;5062588;28;20209;-74
2021/01/20 12:17:49;;;;;;;8.80;4.27;;;7.30;99.90;;;;;;5062055;28;20211;-73
2021/01/20 12:20:15;;;;;;;5.47;3.80;;;7.40;99.90;;;;;;5063166;28;20693;-74
2021/01/20 12:22:41;;;;;;;6.37;3.10;;;7.40;99.90;;;;;;5063519;28;20454;-75
2021/01/20 12:25:07;;;;;;;5.80;2.90;;;7.40;99.90;;;;;;5063484;28;20503;-73
2021/01/20 12:27:34;;;;;;;4.07;3.10;;;7.40;99.90;;;;;;5062233;28;20182;-73
2021/01/20 12:30:00;;;;;;;2.97;2.60;;;7.50;99.90;;;;;;5064262;28;20442;-72
2021/01/20 12:32:26;;;;;;;16.07;4.00;;;7.60;99.90;;;;;;5065708;28;20431;-74
2021/01/20 12:34:52;;;;;;;10.63;4.10;;;7.60;99.90;;;;;;5063003;28;20459;-73
2021/01/20 12:37:17;;;;;;;6.60;3.93;;;7.70;99.90;;;;;;5062645;28;20427;-73
2021/01/20 12:39:43;;;;;;;10.40;3.53;;;7.70;99.90;;;;;;5064207;28;20185;-73
2021/01/20 12:42:09;;;;;;;7.00;3.10;;;7.70;99.90;;;;;;5060569;28;20223;-73
2021/01/20 12:44:34;;;;;;;2.83;2.63;;;7.70;99.90;;;;;;5062590;28;20263;-75
2021/01/20 12:47:00;;;;;;;3.10;2.77;;;7.70;99.90;;;;;;5063928;28;20639;-73
2021/01/20 12:49:26;;;;;;;5.43;3.30;;;7.70;99.90;;;;;;5061292;28;20180;-74
2021/01/20 12:51:51;;;;;;;5.47;2.90;;;7.70;99.90;;;;;;5061396;28;20188;-74
2021/01/20 12:54:17;;;;;;;3.33;2.70;;;7.80;99.90;;;;;;5063545;28;20195;-72
2021/01/20 12:56:42;;;;;;;3.07;2.33;;;7.80;99.90;;;;;;5061895;28;20569;-73
2021/01/20 12:59:09;;;;;;;9.40;3.07;;;7.80;99.90;;;;;;5063787;28;20727;-73
2021/01/20 13:01:35;;;;;;;5.07;3.10;;;7.80;99.90;;;;;;5065224;28;20591;-73